createdAt,value
2018-11-11T00:02:14.082Z,52.67
2018-11-11T00:04:40.118Z,52.86
2018-11-11T00:07:06.123Z,52.94
2018-11-11T00:09:32.170Z,52.54
2018-11-11T00:11:58.172Z,52.78
2018-11-11T00:14:24.214Z,52.59
2018-11-11T00:16:50.214Z,53.06
2018-11-11T00:19:16.262Z,52.56
2018-11-11T00:21:42.313Z,52.62
2018-11-11T00:24:08.302Z,52.86
2018-11-11T00:26:34.298Z,52.52
2018-11-11T00:29:00.226Z,52.65
2018-11-11T00:31:26.277Z,52.74
2018-11-11T00:33:52.274Z,53.04
2018-11-11T00:36:18.319Z,52.66
2018-11-11T00:38:44.318Z,53.03
2018-11-11T00:41:10.362Z,52.78
2018-11-11T00:43:36.362Z,53.16
2018-11-11T00:46:02.414Z,52.58
2018-11-11T00:48:28.409Z,52.96
2018-11-11T00:50:54.454Z,53.11
2018-11-11T00:53:20.463Z,53.04
2018-11-11T00:55:46.826Z,52.95
2018-11-11T00:58:12.806Z,53.25
2018-11-11T01:00:38.853Z,53.17
2018-11-11T01:03:04.854Z,52.91
2018-11-11T01:05:30.918Z,53.08
2018-11-11T01:07:56.903Z,53.05
2018-11-11T01:10:22.929Z,53.14
2018-11-11T01:12:48.970Z,52.89
2018-11-11T01:15:14.970Z,53.00
2018-11-11T01:17:41.019Z,53.11
2018-11-11T01:20:07.134Z,53.30
2018-11-11T01:22:33.167Z,52.87
2018-11-11T01:24:59.167Z,53.07
2018-11-11T01:27:25.214Z,53.01
2018-11-11T01:29:51.210Z,53.13
2018-11-11T01:32:17.251Z,53.22
2018-11-11T01:34:43.262Z,52.84
2018-11-11T01:37:09.302Z,52.94
2018-11-11T01:39:35.302Z,53.39
2018-11-11T01:42:01.352Z,53.30
2018-11-11T01:44:27.352Z,52.84
2018-11-11T01:46:53.530Z,52.96
2018-11-11T01:49:19.493Z,53.24
2018-11-11T01:51:45.528Z,53.27
2018-11-11T01:54:11.566Z,53.17
2018-11-11T01:56:37.562Z,53.08
2018-11-11T01:59:03.630Z,52.87
2018-11-11T02:01:29.614Z,52.89
2018-11-11T02:03:55.671Z,53.39
2018-11-11T02:06:21.667Z,53.18
2018-11-11T02:08:47.706Z,53.19
2018-11-11T02:11:13.714Z,53.11
2018-11-11T02:13:39.754Z,52.85
2018-11-11T02:16:05.751Z,53.11
2018-11-11T02:18:31.798Z,53.11
2018-11-11T02:20:57.827Z,53.25
2018-11-11T02:23:23.915Z,53.19
2018-11-11T02:25:49.849Z,53.19
2018-11-11T02:28:15.866Z,53.21
2018-11-11T02:30:41.910Z,53.27
2018-11-11T02:33:07.911Z,52.88
2018-11-11T02:35:33.961Z,52.91
2018-11-11T02:37:59.958Z,53.38
2018-11-11T02:40:26.003Z,52.79
2018-11-11T02:42:52.003Z,52.98
2018-11-11T02:45:18.047Z,52.90
2018-11-11T02:47:44.057Z,52.93
2018-11-11T02:50:10.103Z,53.12
2018-11-11T02:52:36.094Z,52.72
2018-11-11T02:55:02.152Z,52.85
2018-11-11T02:57:28.147Z,53.18
2018-11-11T02:59:54.191Z,53.58
2018-11-11T03:02:20.190Z,53.52
2018-11-11T03:04:46.241Z,53.51
2018-11-11T03:07:12.234Z,53.09
2018-11-11T03:09:38.289Z,52.93
2018-11-11T03:12:04.282Z,53.31
2018-11-11T03:14:30.302Z,53.45
2018-11-11T03:16:56.351Z,53.58
2018-11-11T03:19:22.350Z,53.20
2018-11-11T03:21:48.394Z,53.45
2018-11-11T03:24:14.394Z,53.16
2018-11-11T03:26:40.436Z,52.93
2018-11-11T03:29:06.438Z,52.94
2018-11-11T03:31:32.488Z,52.99
2018-11-11T03:33:58.486Z,52.89
2018-11-11T03:36:24.523Z,53.21
2018-11-11T03:38:50.539Z,53.14
2018-11-11T03:41:16.582Z,53.08
2018-11-11T03:43:42.588Z,53.24
2018-11-11T03:46:08.634Z,53.13
2018-11-11T03:48:34.626Z,53.08
2018-11-11T03:51:00.650Z,53.08
2018-11-11T03:53:26.703Z,52.93
2018-11-11T03:55:52.720Z,52.95
2018-11-11T03:58:18.742Z,53.01
2018-11-11T04:00:44.747Z,53.05
2018-11-11T04:03:10.828Z,53.38
2018-11-11T04:05:36.786Z,53.24
2018-11-11T04:08:02.835Z,53.33
2018-11-11T04:10:28.867Z,53.06
2018-11-11T04:12:54.894Z,53.27
2018-11-11T04:15:20.880Z,53.41
2018-11-11T04:17:46.922Z,53.29
2018-11-11T04:20:12.923Z,53.17
2018-11-11T04:22:38.962Z,53.37
2018-11-11T04:25:05.087Z,53.10
2018-11-11T04:27:31.098Z,53.08
2018-11-11T04:29:57.147Z,53.24
2018-11-11T04:32:23.146Z,53.27
2018-11-11T04:34:49.191Z,53.33
2018-11-11T04:37:15.190Z,53.36
2018-11-11T04:39:41.244Z,53.57
2018-11-11T04:42:07.229Z,53.08
2018-11-11T04:44:33.279Z,53.63
2018-11-11T04:46:59.282Z,53.33
2018-11-11T04:49:25.332Z,53.29
2018-11-11T04:51:51.322Z,53.40
2018-11-11T04:54:17.388Z,53.38
2018-11-11T04:56:43.368Z,53.91
2018-11-11T04:59:09.410Z,53.87
2018-11-11T05:01:35.497Z,53.30
2018-11-11T05:04:01.467Z,53.61
2018-11-11T05:06:27.466Z,53.52
2018-11-11T05:08:53.487Z,53.87
2018-11-11T05:11:19.538Z,53.14
2018-11-11T05:13:45.530Z,53.48
2018-11-11T05:16:11.587Z,53.54
2018-11-11T05:18:37.579Z,53.61
2018-11-11T05:21:03.626Z,53.41
2018-11-11T05:23:29.635Z,53.38
2018-11-11T05:25:55.679Z,53.72
2018-11-11T05:28:21.674Z,53.75
2018-11-11T05:30:47.775Z,53.52
2018-11-11T05:33:13.722Z,53.29
2018-11-11T05:35:39.766Z,53.57
2018-11-11T05:38:05.762Z,53.83
2018-11-11T05:40:31.810Z,53.49
2018-11-11T05:42:57.814Z,53.87
2018-11-11T05:45:23.866Z,53.06
2018-11-11T05:47:49.863Z,53.24
2018-11-11T05:50:15.896Z,53.38
2018-11-11T05:52:41.924Z,53.58
2018-11-11T05:55:07.922Z,53.29
2018-11-11T05:57:33.970Z,53.89
2018-11-11T05:59:59.975Z,53.61
2018-11-11T06:02:26.014Z,53.88
2018-11-11T06:04:52.019Z,53.48
2018-11-11T06:07:18.063Z,53.43
2018-11-11T06:09:44.061Z,53.44
2018-11-11T06:12:10.102Z,53.67
2018-11-11T06:14:36.110Z,53.27
2018-11-11T06:17:02.157Z,53.45
2018-11-11T06:19:28.155Z,53.83
2018-11-11T06:21:54.198Z,53.50
2018-11-11T06:24:20.211Z,53.74
2018-11-11T06:26:46.250Z,53.26
2018-11-11T06:29:12.250Z,53.66
2018-11-11T06:31:38.274Z,53.63
2018-11-11T06:34:04.374Z,53.65
2018-11-11T06:36:30.317Z,53.77
2018-11-11T06:38:56.358Z,53.50
2018-11-11T06:41:22.358Z,53.81
2018-11-11T06:43:48.410Z,53.84
2018-11-11T06:46:14.402Z,53.57
2018-11-11T06:48:40.450Z,53.61
2018-11-11T06:51:06.454Z,53.55
2018-11-11T06:53:32.550Z,53.69
2018-11-11T06:55:58.498Z,53.34
2018-11-11T06:58:24.542Z,53.31
2018-11-11T07:00:50.542Z,53.29
2018-11-11T07:03:22.262Z,53.60
2018-11-11T07:05:48.236Z,53.53
2018-11-11T07:08:14.246Z,53.32
2018-11-11T07:10:40.293Z,53.33
2018-11-11T07:13:06.294Z,53.51
2018-11-11T07:15:32.338Z,53.42
2018-11-11T07:17:58.338Z,53.63
2018-11-11T07:20:24.381Z,53.41
2018-11-11T07:22:50.390Z,53.31
2018-11-11T07:25:16.431Z,53.75
2018-11-11T07:27:42.439Z,53.27
2018-11-11T07:30:08.475Z,53.45
2018-11-11T07:32:34.474Z,53.50
2018-11-11T07:35:00.522Z,53.41
2018-11-11T07:37:26.522Z,54.13
2018-11-11T07:39:52.562Z,54.07
2018-11-11T07:42:18.602Z,53.89
2018-11-11T07:44:44.590Z,54.34
2018-11-11T07:47:10.642Z,54.12
2018-11-11T07:49:36.639Z,53.64
2018-11-11T07:52:02.730Z,52.80
2018-11-11T07:54:28.682Z,51.91
2018-11-11T07:56:54.740Z,51.53
2018-11-11T07:59:20.736Z,51.04
2018-11-11T08:01:46.832Z,51.37
2018-11-11T08:04:12.774Z,50.63
2018-11-11T08:06:38.822Z,50.23
2018-11-11T08:09:05.254Z,50.21
2018-11-11T08:11:36.994Z,49.58
2018-11-11T08:14:03.014Z,49.75
2018-11-11T08:16:29.091Z,50.18
2018-11-11T08:18:55.058Z,50.20
2018-11-11T08:21:21.103Z,50.10
2018-11-11T08:23:47.106Z,50.14
2018-11-11T08:26:13.126Z,50.04
2018-11-11T08:28:39.178Z,49.96
2018-11-11T08:31:05.170Z,49.75
2018-11-11T08:33:31.218Z,50.13
2018-11-11T08:35:57.218Z,50.21
2018-11-11T08:38:23.262Z,50.50
2018-11-11T08:40:49.268Z,50.15
2018-11-11T08:43:15.309Z,50.64
2018-11-11T08:45:41.314Z,50.27
2018-11-11T08:48:07.399Z,50.22
2018-11-11T08:50:33.350Z,50.25
2018-11-11T08:52:59.306Z,50.61
2018-11-11T08:55:25.301Z,50.62
2018-11-11T08:57:51.397Z,50.63
2018-11-11T09:00:17.458Z,50.68
2018-11-11T09:02:43.494Z,50.93
2018-11-11T09:05:09.498Z,50.66
2018-11-11T09:07:35.538Z,50.71
2018-11-11T09:10:01.546Z,50.77
2018-11-11T09:12:27.588Z,50.29
2018-11-11T09:14:53.586Z,50.15
2018-11-11T09:17:19.669Z,50.59
2018-11-11T09:19:45.650Z,50.42
2018-11-11T09:22:11.661Z,49.83
2018-11-11T09:24:37.702Z,49.59
2018-11-11T09:27:03.937Z,50.23
2018-11-11T09:29:29.966Z,50.17
2018-11-11T09:31:55.966Z,49.95
2018-11-11T09:34:21.998Z,49.89
2018-11-11T09:36:48.014Z,49.88
2018-11-11T09:39:14.126Z,49.96
2018-11-11T09:41:40.046Z,50.58
2018-11-11T09:44:06.107Z,50.52
2018-11-11T09:46:32.098Z,50.14
2018-11-11T09:48:58.115Z,50.66
2018-11-11T09:51:24.162Z,50.03
2018-11-11T09:53:50.231Z,50.11
2018-11-11T09:56:16.208Z,50.20
2018-11-11T09:58:42.262Z,50.36
2018-11-11T10:01:08.258Z,50.58
2018-11-11T10:03:34.258Z,49.38
2018-11-11T10:06:00.298Z,50.03
2018-11-11T10:08:26.310Z,50.03
2018-11-11T10:10:52.358Z,49.97
2018-11-11T10:13:18.351Z,50.60
2018-11-11T10:15:44.369Z,50.45
2018-11-11T10:18:10.414Z,50.45
2018-11-11T10:20:36.448Z,50.50
2018-11-11T10:23:02.458Z,50.40
2018-11-11T10:25:28.462Z,50.51
2018-11-11T10:27:54.518Z,50.66
2018-11-11T10:30:21.517Z,50.86
2018-11-11T10:32:53.376Z,50.55
2018-11-11T10:35:19.311Z,50.69
2018-11-11T10:37:45.358Z,50.31
2018-11-11T10:40:11.366Z,50.41
2018-11-11T10:42:37.403Z,50.34
2018-11-11T10:45:03.530Z,50.64
2018-11-11T10:47:29.572Z,50.40
2018-11-11T10:49:55.554Z,50.59
2018-11-11T10:52:21.598Z,50.37
2018-11-11T10:54:47.599Z,50.31
2018-11-11T10:57:13.658Z,50.46
2018-11-11T10:59:39.642Z,50.58
2018-11-11T11:02:05.667Z,50.32
2018-11-11T11:04:31.710Z,50.56
2018-11-11T11:06:57.705Z,50.72
2018-11-11T11:09:23.654Z,50.39
2018-11-11T11:11:49.659Z,50.21
2018-11-11T11:14:15.702Z,50.74
2018-11-11T11:16:41.730Z,50.66
2018-11-11T11:19:07.752Z,50.30
2018-11-11T11:21:33.750Z,50.70
2018-11-11T11:23:59.810Z,50.37
2018-11-11T11:26:25.795Z,50.32
2018-11-11T11:28:51.834Z,50.41
2018-11-11T11:31:17.857Z,50.49
2018-11-11T11:33:43.872Z,50.58
2018-11-11T11:36:09.911Z,50.48
2018-11-11T11:38:35.910Z,50.82
2018-11-11T11:41:01.964Z,50.32
2018-11-11T11:43:27.959Z,50.36
2018-11-11T11:45:54.006Z,50.70
2018-11-11T11:48:20.002Z,50.73
2018-11-11T11:50:46.050Z,50.86
2018-11-11T11:53:12.049Z,50.69
2018-11-11T11:55:38.102Z,50.70
2018-11-11T11:58:19.133Z,50.54
2018-11-11T12:00:45.126Z,50.42
2018-11-11T12:03:11.094Z,50.88
2018-11-11T12:05:37.138Z,50.64
2018-11-11T12:08:03.139Z,50.44
2018-11-11T12:10:29.182Z,50.88
2018-11-11T12:12:55.186Z,50.64
2018-11-11T12:15:21.211Z,50.77
2018-11-11T12:17:47.254Z,51.01
2018-11-11T12:20:13.254Z,51.43
2018-11-11T12:22:39.298Z,51.44
2018-11-11T12:25:05.298Z,51.20
2018-11-11T12:27:31.351Z,50.85
2018-11-11T12:29:57.351Z,50.55
2018-11-11T12:32:23.402Z,50.75
2018-11-11T12:34:49.394Z,50.55
2018-11-11T12:37:15.450Z,50.50
2018-11-11T12:39:41.560Z,49.85
2018-11-11T12:42:07.483Z,50.16
2018-11-11T12:44:33.551Z,50.12
2018-11-11T12:46:59.669Z,50.36
2018-11-11T12:49:25.531Z,50.12
2018-11-11T12:51:51.582Z,49.60
2018-11-11T12:54:17.575Z,49.83
2018-11-11T12:56:43.602Z,49.90
2018-11-11T12:59:09.651Z,49.74
2018-11-11T13:01:35.646Z,49.77
2018-11-11T13:04:01.690Z,49.72
2018-11-11T13:06:27.691Z,49.95
2018-11-11T13:08:53.770Z,50.15
2018-11-11T13:11:19.794Z,50.12
2018-11-11T13:13:45.791Z,50.21
2018-11-11T13:16:11.787Z,49.67
2018-11-11T13:18:37.831Z,49.77
2018-11-11T13:21:03.946Z,49.67
2018-11-11T13:23:29.974Z,50.04
2018-11-11T13:25:55.983Z,49.96
2018-11-11T13:28:22.022Z,49.61
2018-11-11T13:30:48.022Z,50.16
2018-11-11T13:33:14.070Z,49.79
2018-11-11T13:35:40.101Z,50.16
2018-11-11T13:38:06.214Z,50.16
2018-11-11T13:40:32.154Z,50.37
2018-11-11T13:42:58.143Z,49.66
2018-11-11T13:45:24.186Z,50.15
2018-11-11T13:47:50.182Z,50.13
2018-11-11T13:50:16.289Z,49.71
2018-11-11T13:52:42.232Z,49.73
2018-11-11T13:55:08.288Z,49.38
2018-11-11T13:57:34.275Z,49.97
2018-11-11T14:00:00.322Z,49.31
2018-11-11T14:02:26.332Z,50.44
2018-11-11T14:04:52.375Z,49.58
2018-11-11T14:07:18.374Z,49.41
2018-11-11T14:09:44.435Z,49.23
2018-11-11T14:12:10.419Z,50.03
2018-11-11T14:14:36.440Z,49.80
2018-11-11T14:17:02.481Z,49.24
2018-11-11T14:19:28.557Z,49.90
2018-11-11T14:21:54.530Z,49.61
2018-11-11T14:24:20.534Z,49.76
2018-11-11T14:26:46.785Z,48.86
2018-11-11T14:29:12.574Z,48.57
2018-11-11T14:31:38.618Z,49.11
2018-11-11T14:34:04.845Z,49.17
2018-11-11T14:36:30.874Z,48.12
2018-11-11T14:38:56.878Z,48.79
2018-11-11T14:41:22.914Z,48.90
2018-11-11T14:43:48.919Z,48.34
2018-11-11T14:46:15.064Z,49.17
2018-11-11T14:48:40.970Z,48.60
2018-11-11T14:51:07.013Z,48.41
2018-11-11T14:53:33.010Z,48.52
2018-11-11T14:55:59.038Z,49.31
2018-11-11T14:58:25.172Z,48.44
2018-11-11T15:00:51.080Z,48.24
2018-11-11T15:03:17.134Z,48.58
2018-11-11T15:05:43.133Z,48.23
2018-11-11T15:08:09.260Z,48.68
2018-11-11T15:10:35.174Z,48.71
2018-11-11T15:13:01.278Z,48.53
2018-11-11T15:15:27.222Z,48.71
2018-11-11T15:17:53.262Z,48.33
2018-11-11T15:20:19.361Z,48.59
2018-11-11T15:22:45.310Z,48.14
2018-11-11T15:25:11.329Z,48.01
2018-11-11T15:27:37.358Z,48.18
2018-11-11T15:30:03.889Z,48.33
2018-11-11T15:32:29.902Z,48.68
2018-11-11T15:34:55.942Z,48.45
2018-11-11T15:37:21.943Z,48.63
2018-11-11T15:39:47.983Z,48.60
2018-11-11T15:42:14.018Z,48.50
2018-11-11T15:44:40.029Z,48.44
2018-11-11T15:47:06.847Z,48.93
2018-11-11T15:49:32.910Z,48.91
2018-11-11T15:51:58.910Z,48.74
2018-11-11T15:54:24.937Z,49.19
2018-11-11T15:56:50.942Z,48.90
2018-11-11T15:59:17.066Z,49.45
2018-11-11T16:01:42.990Z,49.00
2018-11-11T16:04:09.035Z,49.31
2018-11-11T16:06:35.049Z,49.46
2018-11-11T16:09:01.092Z,49.49
2018-11-11T16:11:27.074Z,49.23
2018-11-11T16:13:53.154Z,49.37
2018-11-11T16:16:19.146Z,49.30
2018-11-11T16:18:45.170Z,49.25
2018-11-11T16:21:11.195Z,49.61
2018-11-11T16:23:37.257Z,49.40
2018-11-11T16:26:03.256Z,49.79
2018-11-11T16:28:29.239Z,49.83
2018-11-11T16:30:55.291Z,49.66
2018-11-11T16:33:21.290Z,49.74
2018-11-11T16:35:47.335Z,49.88
2018-11-11T16:38:13.331Z,49.55
2018-11-11T16:40:39.389Z,49.83
2018-11-11T16:43:05.378Z,49.66
2018-11-11T16:45:31.431Z,51.88
2018-11-11T16:47:57.498Z,49.38
2018-11-11T16:50:23.878Z,49.68
2018-11-11T16:52:49.959Z,49.42
2018-11-11T16:55:15.960Z,49.69
2018-11-11T16:57:41.951Z,49.30
2018-11-11T17:00:08.682Z,49.55
2018-11-11T17:02:34.709Z,50.03
2018-11-11T17:05:00.715Z,49.39
2018-11-11T17:07:26.759Z,49.51
2018-11-11T17:09:52.762Z,49.60
2018-11-11T17:12:18.815Z,49.59
2018-11-11T17:14:44.803Z,50.28
2018-11-11T17:17:10.855Z,49.72
2018-11-11T17:19:36.858Z,49.69
2018-11-11T17:22:03.137Z,49.48
2018-11-11T17:24:28.898Z,49.26
2018-11-11T17:26:54.942Z,48.80
2018-11-11T17:29:20.992Z,48.55
2018-11-11T17:31:47.006Z,49.14
2018-11-11T17:34:12.986Z,49.19
2018-11-11T17:36:39.023Z,48.84
2018-11-11T17:39:07.063Z,49.08
2018-11-11T17:41:33.059Z,49.41
2018-11-11T17:43:59.046Z,49.49
2018-11-11T17:46:25.057Z,50.09
2018-11-11T17:48:51.249Z,50.08
2018-11-11T17:51:17.094Z,50.02
2018-11-11T17:53:43.155Z,50.27
2018-11-11T17:56:09.194Z,49.97
2018-11-11T17:58:35.190Z,50.46
2018-11-11T18:01:01.248Z,51.68
2018-11-11T18:03:27.345Z,52.54
2018-11-11T18:05:53.246Z,52.21
2018-11-11T18:08:19.279Z,52.54
2018-11-11T18:10:45.377Z,52.24
2018-11-11T18:13:11.333Z,52.33
2018-11-11T18:15:37.331Z,52.07
2018-11-11T18:18:03.616Z,51.91
2018-11-11T18:20:29.599Z,51.69
2018-11-11T18:22:55.607Z,51.66
2018-11-11T18:25:21.651Z,51.83
2018-11-11T18:27:47.664Z,51.35
2018-11-11T18:30:14.464Z,51.94
2018-11-11T18:32:40.415Z,51.42
2018-11-11T18:35:07.289Z,51.52
2018-11-11T18:37:33.274Z,51.43
2018-11-11T18:39:59.361Z,51.61
2018-11-11T18:42:25.387Z,51.68
2018-11-11T18:44:51.367Z,51.33
2018-11-11T18:47:17.378Z,51.21
2018-11-11T18:49:43.399Z,51.23
2018-11-11T18:52:09.454Z,50.97
2018-11-11T18:54:35.434Z,50.86
2018-11-11T18:57:01.507Z,50.76
2018-11-11T18:59:27.490Z,51.09
2018-11-11T19:01:53.526Z,50.94
2018-11-11T19:04:19.542Z,51.00
2018-11-11T19:06:45.574Z,50.98
2018-11-11T19:09:11.578Z,50.65
2018-11-11T19:11:37.618Z,50.68
2018-11-11T19:14:03.643Z,50.63
2018-11-11T19:16:29.662Z,50.95
2018-11-11T19:18:55.778Z,50.68
2018-11-11T19:21:21.715Z,50.91
2018-11-11T19:23:47.781Z,50.87
2018-11-11T19:26:13.735Z,50.99
2018-11-11T19:28:39.779Z,51.09
2018-11-11T19:31:05.783Z,51.32
2018-11-11T19:33:31.837Z,51.30
2018-11-11T19:35:57.831Z,50.87
2018-11-11T19:38:23.983Z,50.96
2018-11-11T19:40:49.985Z,51.05
2018-11-11T19:43:16.023Z,51.14
2018-11-11T19:45:42.026Z,51.31
2018-11-11T19:48:08.114Z,51.77
2018-11-11T19:50:34.075Z,51.45
2018-11-11T19:53:00.131Z,51.48
2018-11-11T19:55:26.118Z,51.42
2018-11-11T19:57:52.169Z,51.58
2018-11-11T20:00:19.302Z,51.43
2018-11-11T20:02:45.357Z,51.32
2018-11-11T20:05:11.343Z,51.53
2018-11-11T20:07:37.365Z,51.14
2018-11-11T20:10:04.155Z,51.76
2018-11-11T20:12:30.126Z,51.31
2018-11-11T20:14:56.166Z,51.44
2018-11-11T20:17:22.216Z,51.32
2018-11-11T20:19:48.219Z,51.80
2018-11-11T20:22:14.215Z,51.74
2018-11-11T20:24:40.308Z,51.83
2018-11-11T20:27:06.263Z,51.66
2018-11-11T20:29:32.313Z,51.52
2018-11-11T20:31:58.303Z,51.74
2018-11-11T20:34:24.350Z,51.53
2018-11-11T20:36:50.350Z,51.93
2018-11-11T20:39:16.406Z,52.09
2018-11-11T20:41:42.398Z,52.15
2018-11-11T20:44:08.418Z,51.77
2018-11-11T20:46:34.482Z,52.17
2018-11-11T20:49:00.467Z,52.29
2018-11-11T20:51:26.514Z,51.99
2018-11-11T20:53:52.524Z,51.78
2018-11-11T20:56:18.562Z,52.29
2018-11-11T20:58:44.559Z,51.79
2018-11-11T21:01:10.602Z,51.95
2018-11-11T21:03:36.657Z,52.16
2018-11-11T21:06:02.646Z,51.92
2018-11-11T21:08:28.647Z,52.30
2018-11-11T21:10:54.699Z,52.16
2018-11-11T21:13:20.699Z,52.30
2018-11-11T21:15:46.746Z,52.14
2018-11-11T21:18:12.738Z,51.82
2018-11-11T21:20:38.802Z,51.94
2018-11-11T21:23:04.920Z,51.89
2018-11-11T21:25:30.979Z,52.05
2018-11-11T21:27:56.959Z,52.17
2018-11-11T21:30:22.962Z,51.94
2018-11-11T21:32:49.014Z,52.16
2018-11-11T21:35:15.002Z,51.91
2018-11-11T21:37:41.085Z,52.36
2018-11-11T21:40:07.790Z,51.96
2018-11-11T21:42:33.818Z,51.92
2018-11-11T21:44:59.810Z,52.03
2018-11-11T21:47:25.862Z,52.37
2018-11-11T21:49:51.858Z,52.49
2018-11-11T21:52:17.906Z,52.13
2018-11-11T21:54:43.911Z,52.38
2018-11-11T21:57:09.950Z,52.08
2018-11-11T21:59:35.951Z,52.41
2018-11-11T22:02:02.016Z,52.21
2018-11-11T22:04:28.019Z,52.34
2018-11-11T22:06:54.026Z,52.08
2018-11-11T22:09:20.098Z,52.28
2018-11-11T22:11:46.144Z,52.48
2018-11-11T22:14:12.118Z,52.53
2018-11-11T22:16:38.118Z,52.23
2018-11-11T22:19:04.162Z,52.19
2018-11-11T22:21:30.165Z,52.35
2018-11-11T22:23:56.203Z,52.21
2018-11-11T22:26:22.204Z,52.52
2018-11-11T22:28:48.247Z,52.46
2018-11-11T22:31:14.249Z,52.53
2018-11-11T22:33:40.294Z,52.25
2018-11-11T22:36:06.296Z,52.48
2018-11-11T22:38:32.354Z,52.45
2018-11-11T22:40:58.338Z,52.46
2018-11-11T22:43:24.370Z,52.28
2018-11-11T22:45:50.410Z,52.27
2018-11-11T22:48:16.412Z,52.50
2018-11-11T22:50:42.462Z,52.73
2018-11-11T22:53:08.458Z,52.72
2018-11-11T22:55:34.503Z,52.95
2018-11-11T22:58:00.562Z,52.75
2018-11-11T23:00:26.551Z,52.75
2018-11-11T23:02:52.554Z,52.97
2018-11-11T23:05:18.600Z,52.49
2018-11-11T23:07:44.594Z,52.82
2018-11-11T23:10:10.646Z,52.69
2018-11-11T23:12:36.648Z,52.86
2018-11-11T23:15:02.979Z,52.49
2018-11-11T23:17:28.997Z,53.10
2018-11-11T23:19:55.070Z,52.95
2018-11-11T23:22:21.043Z,52.57
2018-11-11T23:24:47.062Z,52.79
2018-11-11T23:27:13.114Z,53.18
2018-11-11T23:29:39.122Z,53.20
2018-11-11T23:32:05.190Z,52.99
2018-11-11T23:34:31.150Z,53.26
2018-11-11T23:36:57.280Z,52.87
2018-11-11T23:39:23.202Z,53.04
2018-11-11T23:41:49.251Z,53.18
2018-11-11T23:44:15.250Z,53.29
2018-11-11T23:46:41.303Z,53.06
2018-11-11T23:49:07.298Z,53.29
2018-11-11T23:51:33.338Z,52.89
2018-11-11T23:53:59.338Z,53.22
2018-11-11T23:56:25.386Z,52.97
2018-11-11T23:58:51.386Z,53.19
